KCH weather

Kuching International Airport
Kuching, Sarawak, Malaysia

Public forecast

Using degrees Celsius for public forecast. Weather courtesy of forecast.io.

METAR (pilot weather report)

Retrieved 2019/04/24 23:30 UTC (0 seconds ago):

WBGG 242330Z VRB03KT 9999 FEW020 SCT150 BKN300 25/24 Q1008 NOSIG

TAF (pilot weather forecast)

Retrieved 2019/04/24 18:12 UTC (5 hours ago):

TAF WBGG 241700Z 2418/2518 VRB03KT 9999 SCT020